createdAt,value
2023-03-13T00:00:53.058Z,101007.44
2023-03-13T00:03:20.445Z,101017.91
2023-03-13T00:05:47.768Z,101016.34
2023-03-13T00:08:15.264Z,101014.41
2023-03-13T00:10:42.592Z,101013.00
2023-03-13T00:13:09.875Z,101014.69
2023-03-13T00:15:37.120Z,101009.66
2023-03-13T00:18:04.556Z,101012.28
2023-03-13T00:20:31.844Z,101015.69
2023-03-13T00:22:59.078Z,101015.50
2023-03-13T00:25:26.250Z,101016.84
2023-03-13T00:27:53.543Z,101014.88
2023-03-13T00:30:20.905Z,101008.94
2023-03-13T00:32:48.789Z,101012.31
2023-03-13T00:35:16.221Z,101011.63
2023-03-13T00:37:44.113Z,101011.72
2023-03-13T00:40:13.102Z,101002.78
2023-03-13T00:42:40.493Z,101006.94
2023-03-13T00:45:08.710Z,101001.66
2023-03-13T00:47:35.919Z,101014.88
2023-03-13T00:50:03.174Z,101017.50
2023-03-13T00:52:30.516Z,101013.00
2023-03-13T00:54:57.722Z,101009.59
2023-03-13T00:57:25.051Z,101017.44
2023-03-13T00:59:52.374Z,101008.72
2023-03-13T01:02:20.259Z,101011.25
2023-03-13T01:04:47.509Z,101004.16
2023-03-13T01:07:14.757Z,100998.66
2023-03-13T01:09:42.103Z,100994.56
2023-03-13T01:12:09.607Z,100986.47
2023-03-13T01:14:37.036Z,100987.25
2023-03-13T01:17:04.276Z,100982.94
2023-03-13T01:19:31.710Z,100985.28
2023-03-13T01:21:58.979Z,100992.69
2023-03-13T01:24:26.272Z,100994.56
2023-03-13T01:26:53.454Z,100999.56
2023-03-13T01:29:20.659Z,100994.41
2023-03-13T01:31:48.471Z,100979.59
2023-03-13T01:34:15.741Z,100982.06
2023-03-13T01:36:43.770Z,100981.88
2023-03-13T01:39:11.083Z,100985.22
2023-03-13T01:41:39.013Z,100986.84
2023-03-13T01:44:20.646Z,100981.50
2023-03-13T01:46:48.334Z,100980.47
2023-03-13T01:49:23.809Z,100979.72
2023-03-13T01:52:14.780Z,100976.22
2023-03-13T01:55:12.037Z,100977.06
2023-03-13T01:57:43.066Z,100965.81
2023-03-13T02:00:13.139Z,100970.16
2023-03-13T02:02:43.084Z,100966.53
2023-03-13T02:05:10.434Z,100975.31
2023-03-13T02:07:46.748Z,100976.22
2023-03-13T02:10:16.215Z,100968.38
2023-03-13T02:12:44.088Z,100970.91
2023-03-13T02:15:18.665Z,100983.03
2023-03-13T02:17:47.511Z,100970.22
2023-03-13T02:20:15.959Z,100967.50
2023-03-13T02:22:52.086Z,100987.25
2023-03-13T02:25:25.470Z,100986.38
2023-03-13T02:28:09.383Z,100981.94
2023-03-13T02:30:39.978Z,100972.59
2023-03-13T02:33:07.429Z,100965.56
2023-03-13T02:35:36.060Z,100953.34
2023-03-13T02:38:08.285Z,100949.94
2023-03-13T02:40:37.315Z,100935.31
2023-03-13T02:43:07.545Z,100936.94
2023-03-13T02:45:35.111Z,100936.19
2023-03-13T02:48:02.552Z,100929.06
2023-03-13T02:50:29.993Z,100941.09
2023-03-13T02:53:03.523Z,100943.00
2023-03-13T02:55:34.306Z,100937.16
2023-03-13T02:58:01.687Z,100945.78
2023-03-13T03:00:33.196Z,100951.72
2023-03-13T03:03:01.527Z,100949.94
2023-03-13T03:05:28.838Z,100958.75
2023-03-13T03:07:57.370Z,100963.22
2023-03-13T03:10:24.908Z,100960.63
2023-03-13T03:12:52.649Z,100972.75
2023-03-13T03:15:20.264Z,100980.69
2023-03-13T03:17:48.850Z,100968.78
2023-03-13T03:20:16.081Z,100967.47
2023-03-13T03:22:44.140Z,100956.06
2023-03-13T03:25:11.628Z,100967.19
2023-03-13T03:27:39.025Z,100972.44
2023-03-13T03:30:08.783Z,100987.06
2023-03-13T03:32:38.077Z,100988.75
2023-03-13T03:35:05.766Z,100991.09
2023-03-13T03:37:32.957Z,101002.34
2023-03-13T03:40:01.380Z,101005.75
2023-03-13T03:42:31.310Z,101008.44
2023-03-13T03:44:58.651Z,101005.75
2023-03-13T03:47:25.917Z,101006.63
2023-03-13T03:49:53.436Z,101008.78
2023-03-13T03:52:21.170Z,101002.53
2023-03-13T03:54:48.651Z,100997.97
2023-03-13T03:57:17.446Z,101001.88
2023-03-13T03:59:46.021Z,100998.94
2023-03-13T04:02:13.369Z,101000.06
2023-03-13T04:04:42.096Z,100996.72
2023-03-13T04:07:21.706Z,101003.59
2023-03-13T04:09:50.385Z,101015.91
2023-03-13T04:12:25.793Z,101007.25
2023-03-13T04:14:54.974Z,101011.59
2023-03-13T04:17:22.307Z,101024.63
2023-03-13T04:19:49.798Z,101024.47
2023-03-13T04:22:17.120Z,101021.16
2023-03-13T04:24:50.287Z,101017.44
2023-03-13T04:27:19.584Z,101013.88
2023-03-13T04:29:48.168Z,101010.38
2023-03-13T04:32:33.756Z,101007.72
2023-03-13T04:35:16.241Z,101004.97
2023-03-13T04:38:02.863Z,100998.91
2023-03-13T04:40:48.006Z,101011.84
2023-03-13T04:43:36.122Z,101012.16
2023-03-13T04:46:10.116Z,101007.16
2023-03-13T04:49:03.733Z,100996.72
2023-03-13T04:51:31.164Z,101000.09
2023-03-13T04:54:16.427Z,100986.69
2023-03-13T04:57:01.958Z,100992.72
2023-03-13T04:59:29.253Z,100990.13
2023-03-13T05:02:19.287Z,101000.28
2023-03-13T05:04:58.770Z,100997.72
2023-03-13T05:07:44.394Z,101005.53
2023-03-13T05:10:34.179Z,101007.31
2023-03-13T05:13:25.285Z,101018.56
2023-03-13T05:15:58.391Z,101011.72
2023-03-13T05:18:31.576Z,101006.41
2023-03-13T05:21:20.793Z,101007.16
2023-03-13T05:23:54.123Z,100995.00
2023-03-13T05:26:34.961Z,101001.19
2023-03-13T05:29:05.123Z,100998.81
2023-03-13T05:31:57.949Z,100999.75
2023-03-13T05:34:43.886Z,101005.94
2023-03-13T05:37:29.817Z,100994.69
2023-03-13T05:40:15.467Z,100993.78
2023-03-13T05:42:54.623Z,101005.09
2023-03-13T05:45:40.321Z,101000.03
2023-03-13T05:48:27.948Z,100991.72
2023-03-13T05:51:13.227Z,100987.31
2023-03-13T05:53:59.248Z,100989.00
2023-03-13T05:56:56.828Z,100999.28
2023-03-13T05:59:32.870Z,100999.19
2023-03-13T06:02:29.490Z,101002.78
2023-03-13T06:04:58.500Z,101013.25
2023-03-13T06:07:25.843Z,101014.03
2023-03-13T06:09:54.520Z,101019.81
2023-03-13T06:12:21.804Z,101030.84
2023-03-13T06:14:49.040Z,101030.69
2023-03-13T06:17:35.313Z,101033.19
2023-03-13T06:20:04.162Z,101026.25
2023-03-13T06:22:31.406Z,101036.44
2023-03-13T06:24:58.643Z,101034.50
2023-03-13T06:27:25.779Z,101033.38
2023-03-13T06:29:53.082Z,101029.06
2023-03-13T06:32:20.417Z,101028.28
2023-03-13T06:34:47.668Z,101023.75
2023-03-13T06:37:15.125Z,101038.44
2023-03-13T06:39:42.428Z,101046.09
2023-03-13T06:42:09.773Z,101033.78
2023-03-13T06:44:37.069Z,101036.22
2023-03-13T06:47:04.363Z,101046.44
2023-03-13T06:49:31.797Z,101053.25
2023-03-13T06:51:59.184Z,101056.47
2023-03-13T06:54:26.599Z,101045.00
2023-03-13T06:56:53.870Z,101039.69
2023-03-13T06:59:21.075Z,101025.53
2023-03-13T07:01:48.524Z,101030.53
2023-03-13T07:04:16.446Z,101034.69
2023-03-13T07:06:43.832Z,101038.84
2023-03-13T07:09:11.086Z,101043.03
2023-03-13T07:11:38.699Z,101041.19
2023-03-13T07:14:16.441Z,101050.38
2023-03-13T07:16:45.120Z,101042.34
2023-03-13T07:19:12.816Z,101049.91
2023-03-13T07:21:40.056Z,101055.78
2023-03-13T07:24:08.416Z,101058.28
2023-03-13T07:26:35.927Z,101058.22
2023-03-13T07:29:03.955Z,101054.44
2023-03-13T07:31:33.941Z,101057.72
2023-03-13T07:34:01.339Z,101052.34
2023-03-13T07:36:29.957Z,101050.44
2023-03-13T07:38:57.285Z,101051.16
2023-03-13T07:41:24.567Z,101057.06
2023-03-13T07:43:51.989Z,101048.25
2023-03-13T07:46:19.958Z,101042.75
2023-03-13T07:48:47.851Z,101038.03
2023-03-13T07:51:17.315Z,101032.66
2023-03-13T07:53:45.258Z,101038.75
2023-03-13T07:56:13.373Z,101038.53
2023-03-13T07:58:41.780Z,101039.28
2023-03-13T08:01:20.202Z,101033.78
2023-03-13T08:03:52.152Z,101037.63
2023-03-13T08:06:23.301Z,101032.25
2023-03-13T08:08:51.210Z,101032.13
2023-03-13T08:11:19.758Z,101028.63
2023-03-13T08:13:47.308Z,101021.50
2023-03-13T08:16:19.335Z,101026.50
2023-03-13T08:18:47.588Z,101021.75
2023-03-13T08:21:16.301Z,101018.78
2023-03-13T08:23:43.963Z,101015.03
2023-03-13T08:26:15.722Z,101025.25
2023-03-13T08:28:44.184Z,101030.19
2023-03-13T08:31:12.780Z,101023.03
2023-03-13T08:33:40.797Z,101025.47
2023-03-13T08:36:34.665Z,101032.97
2023-03-13T08:39:06.197Z,101039.28
2023-03-13T08:41:37.377Z,101036.81
2023-03-13T08:44:05.006Z,101043.16
2023-03-13T08:46:33.572Z,101046.16
2023-03-13T08:49:00.844Z,101040.44
2023-03-13T08:51:28.534Z,101041.03
2023-03-13T08:53:56.220Z,101043.28
2023-03-13T08:56:25.397Z,101052.03
2023-03-13T08:58:53.837Z,101055.56
2023-03-13T09:01:22.220Z,101054.81
2023-03-13T09:03:49.909Z,101056.97
2023-03-13T09:06:17.536Z,101046.41
2023-03-13T09:08:45.152Z,101048.63
2023-03-13T09:11:17.190Z,101053.97
2023-03-13T09:13:45.864Z,101052.69
2023-03-13T09:16:15.058Z,101053.50
2023-03-13T09:18:43.430Z,101058.38
2023-03-13T09:21:13.159Z,101060.34
2023-03-13T09:23:40.541Z,101042.66
2023-03-13T09:26:07.835Z,101046.38
2023-03-13T09:28:35.624Z,101051.22
2023-03-13T09:31:09.037Z,101049.91
2023-03-13T09:33:36.642Z,101046.69
2023-03-13T09:36:04.214Z,101033.91
2023-03-13T09:38:31.893Z,101045.00
2023-03-13T09:41:06.400Z,101039.16
2023-03-13T09:43:40.803Z,101039.28
2023-03-13T09:46:28.282Z,101026.69
2023-03-13T09:49:16.599Z,101025.38
2023-03-13T09:51:49.041Z,101024.75
2023-03-13T09:54:28.656Z,101014.47
2023-03-13T09:57:04.047Z,101019.69
2023-03-13T09:59:46.958Z,101027.84
2023-03-13T10:02:24.592Z,101028.84
2023-03-13T10:04:54.079Z,101026.59
2023-03-13T10:07:21.578Z,101032.59
2023-03-13T10:09:48.940Z,101033.66
2023-03-13T10:12:23.601Z,101029.31
2023-03-13T10:15:09.594Z,101036.28
2023-03-13T10:17:38.370Z,101029.66
2023-03-13T10:20:25.500Z,101024.75
2023-03-13T10:23:13.024Z,101030.59
2023-03-13T10:25:40.381Z,101020.53
2023-03-13T10:28:15.396Z,101023.38
2023-03-13T10:31:01.037Z,101031.13
2023-03-13T10:33:29.007Z,101029.84
2023-03-13T10:36:04.854Z,101019.09
2023-03-13T10:38:45.438Z,101028.38
2023-03-13T10:41:39.076Z,101024.13
2023-03-13T10:44:08.713Z,101016.91
2023-03-13T10:46:40.140Z,101008.00
2023-03-13T10:49:15.095Z,101007.63
2023-03-13T10:51:48.374Z,101003.53
2023-03-13T10:54:16.807Z,100993.91
2023-03-13T10:56:44.202Z,100994.38
2023-03-13T10:59:23.188Z,100997.00
2023-03-13T11:01:51.436Z,101002.47
2023-03-13T11:04:20.618Z,101006.31
2023-03-13T11:06:53.003Z,101011.91
2023-03-13T11:09:20.440Z,100994.16
2023-03-13T11:11:49.191Z,100996.84
2023-03-13T11:14:18.089Z,100980.19
2023-03-13T11:16:50.391Z,100982.19
2023-03-13T11:19:36.241Z,100975.56
2023-03-13T11:22:26.455Z,100971.25
2023-03-13T11:25:12.665Z,100973.13
2023-03-13T11:27:46.361Z,100967.25
2023-03-13T11:30:17.369Z,100957.16
2023-03-13T11:33:01.903Z,100960.72
2023-03-13T11:35:44.359Z,100953.59
2023-03-13T11:38:29.264Z,100950.34
2023-03-13T11:41:05.760Z,100944.16
2023-03-13T11:43:42.111Z,100945.06
2023-03-13T11:46:18.192Z,100952.56
2023-03-13T11:49:04.779Z,100954.09
2023-03-13T11:51:41.480Z,100939.25
2023-03-13T11:54:28.340Z,100933.97
2023-03-13T11:56:58.409Z,100924.28
2023-03-13T11:59:35.243Z,100923.03
2023-03-13T12:02:02.422Z,100921.44
2023-03-13T12:04:42.244Z,100913.66
2023-03-13T12:07:28.505Z,100910.25
2023-03-13T12:10:01.767Z,100899.53
2023-03-13T12:12:38.812Z,100900.13
2023-03-13T12:15:19.196Z,100890.25
2023-03-13T12:17:50.132Z,100894.25
2023-03-13T12:20:40.182Z,100882.44
2023-03-13T12:23:15.358Z,100878.22
2023-03-13T12:25:45.723Z,100885.75
2023-03-13T12:28:24.933Z,100878.31
2023-03-13T12:30:58.518Z,100877.59
2023-03-13T12:33:29.733Z,100875.88
2023-03-13T12:36:02.194Z,100863.72
2023-03-13T12:38:48.488Z,100866.69
2023-03-13T12:41:45.011Z,100850.97
2023-03-13T12:44:18.647Z,100841.03
2023-03-13T12:47:08.619Z,100838.00
2023-03-13T12:49:49.419Z,100838.59
2023-03-13T12:52:16.688Z,100825.06
2023-03-13T12:54:59.190Z,100819.50
2023-03-13T12:57:45.314Z,100805.75
2023-03-13T13:00:21.807Z,100809.56
2023-03-13T13:03:01.884Z,100811.34
2023-03-13T13:05:29.384Z,100804.13
2023-03-13T13:07:56.981Z,100805.28
2023-03-13T13:10:26.411Z,100801.69
2023-03-13T13:13:12.411Z,100793.28
2023-03-13T13:15:46.489Z,100791.41
2023-03-13T13:18:27.245Z,100801.91
2023-03-13T13:21:06.978Z,100783.91
2023-03-13T13:23:34.262Z,100780.56
2023-03-13T13:26:20.259Z,100781.91
2023-03-13T13:28:47.548Z,100784.75
2023-03-13T13:31:33.380Z,100780.72
2023-03-13T13:34:00.669Z,100767.84
2023-03-13T13:36:29.103Z,100770.72
2023-03-13T13:38:57.419Z,100766.59
2023-03-13T13:41:34.308Z,100763.69
2023-03-13T13:44:20.307Z,100763.44
2023-03-13T13:46:47.782Z,100764.75
2023-03-13T13:49:17.040Z,100752.34
2023-03-13T13:52:03.025Z,100747.59
2023-03-13T13:54:42.867Z,100747.69
2023-03-13T13:57:20.101Z,100753.28
2023-03-13T13:59:49.426Z,100756.44
2023-03-13T14:02:16.989Z,100757.19
2023-03-13T14:04:44.456Z,100749.03
2023-03-13T14:07:15.408Z,100736.88
2023-03-13T14:09:45.335Z,100735.28
2023-03-13T14:12:30.724Z,100734.25
2023-03-13T14:15:10.195Z,100725.41
2023-03-13T14:17:48.649Z,100728.88
2023-03-13T14:20:34.592Z,100723.94
2023-03-13T14:23:03.734Z,100729.94
2023-03-13T14:25:42.724Z,100723.41
2023-03-13T14:28:17.663Z,100720.72
2023-03-13T14:30:45.231Z,100715.47
2023-03-13T14:33:12.441Z,100716.09
2023-03-13T14:35:40.289Z,100715.69
2023-03-13T14:38:07.779Z,100708.75
2023-03-13T14:40:39.069Z,100714.44
2023-03-13T14:43:16.929Z,100715.28
2023-03-13T14:45:44.231Z,100704.19
2023-03-13T14:48:19.329Z,100715.41
2023-03-13T14:50:47.384Z,100698.03
2023-03-13T14:53:19.727Z,100689.53
2023-03-13T14:55:47.655Z,100691.31
2023-03-13T14:58:20.968Z,100680.78
2023-03-13T15:00:49.692Z,100676.38
2023-03-13T15:03:17.199Z,100680.97
2023-03-13T15:05:45.608Z,100676.69
2023-03-13T15:08:14.653Z,100671.34
2023-03-13T15:10:42.460Z,100669.78
2023-03-13T15:13:34.084Z,100666.63
2023-03-13T15:16:01.870Z,100661.28
2023-03-13T15:18:30.242Z,100652.25
2023-03-13T15:20:58.935Z,100649.28
2023-03-13T15:23:26.308Z,100644.25
2023-03-13T15:25:53.716Z,100649.06
2023-03-13T15:28:22.431Z,100648.19
2023-03-13T15:30:51.458Z,100652.50
2023-03-13T15:33:23.181Z,100653.91
2023-03-13T15:35:50.994Z,100652.09
2023-03-13T15:38:19.847Z,100653.59
2023-03-13T15:40:47.435Z,100657.81
2023-03-13T15:43:15.113Z,100647.44
2023-03-13T15:45:43.881Z,100643.00
2023-03-13T15:48:16.911Z,100656.72
2023-03-13T15:50:44.364Z,100645.56
2023-03-13T15:53:22.409Z,100645.56
2023-03-13T15:55:50.388Z,100640.69
2023-03-13T15:58:17.987Z,100636.84
2023-03-13T16:00:49.250Z,100638.19
2023-03-13T16:03:27.178Z,100642.19
2023-03-13T16:05:55.463Z,100642.94
2023-03-13T16:08:37.667Z,100644.09
2023-03-13T16:11:05.409Z,100636.63
2023-03-13T16:13:33.452Z,100636.63
2023-03-13T16:16:00.763Z,100634.75
2023-03-13T16:18:28.289Z,100629.69
2023-03-13T16:20:57.179Z,100628.03
2023-03-13T16:23:24.500Z,100624.78
2023-03-13T16:25:52.026Z,100624.94
2023-03-13T16:28:43.793Z,100630.53
2023-03-13T16:31:25.569Z,100634.09
2023-03-13T16:33:54.147Z,100629.78
2023-03-13T16:36:22.670Z,100628.66
2023-03-13T16:38:50.095Z,100634.16
2023-03-13T16:41:18.852Z,100623.34
2023-03-13T16:43:46.388Z,100628.47
2023-03-13T16:46:18.389Z,100618.75
2023-03-13T16:48:46.754Z,100622.66
2023-03-13T16:51:18.728Z,100618.94
2023-03-13T16:53:47.104Z,100622.66
2023-03-13T16:56:23.551Z,100613.69
2023-03-13T16:58:50.991Z,100622.94
2023-03-13T17:01:18.515Z,100622.19
2023-03-13T17:03:46.368Z,100613.28
2023-03-13T17:06:18.203Z,100611.47
2023-03-13T17:08:46.180Z,100610.63
2023-03-13T17:11:17.332Z,100612.00
2023-03-13T17:13:46.593Z,100606.88
2023-03-13T17:16:15.333Z,100608.94
2023-03-13T17:18:43.804Z,100606.59
2023-03-13T17:21:12.393Z,100608.66
2023-03-13T17:23:39.824Z,100604.25
2023-03-13T17:26:14.682Z,100609.66
2023-03-13T17:28:42.700Z,100618.59
2023-03-13T17:31:10.890Z,100607.22
2023-03-13T17:33:38.512Z,100599.19
2023-03-13T17:36:12.014Z,100600.19
2023-03-13T17:38:39.357Z,100603.56
2023-03-13T17:41:06.680Z,100593.91
2023-03-13T17:43:33.881Z,100591.63
2023-03-13T17:46:01.212Z,100584.53
2023-03-13T17:48:28.420Z,100586.16
2023-03-13T17:50:55.864Z,100582.47
2023-03-13T17:53:23.042Z,100581.16
2023-03-13T17:55:50.324Z,100574.41
2023-03-13T17:58:17.747Z,100574.88
2023-03-13T18:00:47.473Z,100581.38
2023-03-13T18:03:14.802Z,100581.47
2023-03-13T18:05:43.480Z,100587.88
2023-03-13T18:08:11.177Z,100580.16
2023-03-13T18:10:38.504Z,100579.63
2023-03-13T18:13:05.899Z,100580.28
2023-03-13T18:15:33.097Z,100575.75
2023-03-13T18:18:00.462Z,100574.59
2023-03-13T18:20:30.278Z,100571.66
2023-03-13T18:23:00.567Z,100561.28
2023-03-13T18:25:28.897Z,100567.63
2023-03-13T18:27:56.336Z,100564.50
2023-03-13T18:30:24.165Z,100565.84
2023-03-13T18:32:51.519Z,100566.59
2023-03-13T18:35:18.822Z,100570.31
2023-03-13T18:37:47.070Z,100565.34
2023-03-13T18:40:18.932Z,100558.50
2023-03-13T18:42:46.469Z,100562.47
2023-03-13T18:45:14.876Z,100558.94
2023-03-13T18:47:42.284Z,100556.50
2023-03-13T18:50:15.651Z,100557.50
2023-03-13T18:52:42.936Z,100553.09
2023-03-13T18:55:10.271Z,100552.41
2023-03-13T18:57:37.614Z,100543.06
2023-03-13T19:00:13.896Z,100548.47
2023-03-13T19:02:41.211Z,100546.78
2023-03-13T19:05:08.613Z,100553.09
2023-03-13T19:07:36.171Z,100546.78
2023-03-13T19:10:03.777Z,100543.72
2023-03-13T19:12:31.047Z,100547.69
2023-03-13T19:14:58.344Z,100531.28
2023-03-13T19:17:29.632Z,100530.88
2023-03-13T19:19:59.710Z,100532.72
2023-03-13T19:22:27.142Z,100531.97
2023-03-13T19:24:54.382Z,100514.19
2023-03-13T19:27:21.702Z,100503.00
2023-03-13T19:29:48.979Z,100505.16
2023-03-13T19:32:17.301Z,100501.91
2023-03-13T19:34:44.839Z,100495.16
2023-03-13T19:37:14.277Z,100503.09
2023-03-13T19:39:42.505Z,100502.25
2023-03-13T19:42:10.354Z,100496.81
2023-03-13T19:44:38.149Z,100493.25
2023-03-13T19:47:06.539Z,100505.91
2023-03-13T19:49:34.512Z,100500.34
2023-03-13T19:52:03.265Z,100503.78
2023-03-13T19:54:31.882Z,100504.72
2023-03-13T19:57:02.318Z,100510.53
2023-03-13T19:59:35.989Z,100512.38
2023-03-13T20:02:07.213Z,100510.53
2023-03-13T20:04:36.330Z,100504.22
2023-03-13T20:07:04.842Z,100496.28
2023-03-13T20:09:35.489Z,100492.09
2023-03-13T20:12:05.968Z,100493.63
2023-03-13T20:14:35.036Z,100491.25
2023-03-13T20:17:07.185Z,100489.88
2023-03-13T20:19:35.792Z,100488.03
2023-03-13T20:22:05.429Z,100477.94
2023-03-13T20:24:33.837Z,100480.53
2023-03-13T20:27:03.262Z,100483.28
2023-03-13T20:29:32.211Z,100488.69
2023-03-13T20:32:01.616Z,100477.94
2023-03-13T20:34:30.222Z,100471.94
2023-03-13T20:37:00.274Z,100474.72
2023-03-13T20:39:28.687Z,100475.06
2023-03-13T20:41:57.002Z,100472.78
2023-03-13T20:44:25.361Z,100471.09
2023-03-13T20:46:53.987Z,100464.78
2023-03-13T20:49:22.899Z,100459.72
2023-03-13T20:51:51.249Z,100466.13
2023-03-13T20:54:20.006Z,100466.06
2023-03-13T20:56:48.121Z,100463.28
2023-03-13T20:59:16.970Z,100474.06
2023-03-13T21:01:45.566Z,100464.81
2023-03-13T21:04:14.040Z,100472.72
2023-03-13T21:06:43.730Z,100472.38
2023-03-13T21:09:11.819Z,100474.38
2023-03-13T21:11:39.773Z,100477.00
2023-03-13T21:14:07.378Z,100474.69
2023-03-13T21:16:35.808Z,100462.75
2023-03-13T21:19:03.374Z,100459.63
2023-03-13T21:21:31.869Z,100469.44
2023-03-13T21:24:00.451Z,100463.75
2023-03-13T21:26:28.513Z,100463.88
2023-03-13T21:28:57.157Z,100462.31
2023-03-13T21:31:25.582Z,100466.72
2023-03-13T21:33:53.645Z,100461.88
2023-03-13T21:36:22.173Z,100454.47
2023-03-13T21:38:51.295Z,100447.75
2023-03-13T21:41:21.202Z,100434.19
2023-03-13T21:43:49.694Z,100433.75
2023-03-13T21:46:19.032Z,100438.16
2023-03-13T21:48:47.002Z,100413.97
2023-03-13T21:51:14.587Z,100404.00
2023-03-13T21:53:44.438Z,100394.97
2023-03-13T21:56:15.348Z,100403.53
2023-03-13T21:58:43.264Z,100404.34
2023-03-13T22:01:10.716Z,100380.63
2023-03-13T22:03:38.284Z,100387.78
2023-03-13T22:06:11.818Z,100381.81
2023-03-13T22:08:39.615Z,100376.03
2023-03-13T22:11:07.030Z,100354.56
2023-03-13T22:13:34.596Z,100360.56
2023-03-13T22:16:02.081Z,100366.84
2023-03-13T22:18:34.087Z,100370.19
2023-03-13T22:21:02.537Z,100361.28
2023-03-13T22:23:29.863Z,100354.56
2023-03-13T22:25:58.068Z,100354.91
2023-03-13T22:28:25.685Z,100361.81
2023-03-13T22:30:52.896Z,100348.16
2023-03-13T22:33:20.396Z,100339.84
2023-03-13T22:35:50.136Z,100331.44
2023-03-13T22:38:17.728Z,100332.38
2023-03-13T22:40:44.960Z,100330.75
2023-03-13T22:44:02.892Z,100318.63
2023-03-13T22:46:30.204Z,100327.81
2023-03-13T22:48:57.555Z,100317.38
2023-03-13T22:51:24.840Z,100310.16
2023-03-13T22:53:52.862Z,100299.41
2023-03-13T22:56:20.994Z,100284.19
2023-03-13T22:58:48.344Z,100274.03
2023-03-13T23:01:17.146Z,100265.44
2023-03-13T23:03:44.776Z,100262.75
2023-03-13T23:06:15.732Z,100250.31
2023-03-13T23:08:43.977Z,100240.72
2023-03-13T23:11:11.402Z,100246.47
2023-03-13T23:13:38.922Z,100235.84
2023-03-13T23:16:06.994Z,100235.84
2023-03-13T23:18:34.352Z,100209.97
2023-03-13T23:21:04.519Z,100208.81
2023-03-13T23:23:31.851Z,100213.84
2023-03-13T23:26:00.341Z,100204.94
2023-03-13T23:28:28.114Z,100206.78
2023-03-13T23:30:55.297Z,100205.59
2023-03-13T23:33:22.550Z,100208.47
2023-03-13T23:35:49.871Z,100202.56
2023-03-13T23:38:20.600Z,100191.50
2023-03-13T23:40:48.135Z,100187.97
2023-03-13T23:43:15.304Z,100186.28
2023-03-13T23:45:42.595Z,100182.25
2023-03-13T23:48:09.843Z,100163.56
2023-03-13T23:50:37.056Z,100159.88
2023-03-13T23:53:04.379Z,100141.22
2023-03-13T23:55:31.581Z,100138.25
2023-03-13T23:57:58.969Z,100142.50
